Terminal Aerodrome Forecast
Issued by NWS

Home | Current Version | Previous Version | Text Only | Print | Product List | Glossary On
Versions: 1 2 3 4 5 6 7 8 9 10 11 12 13 14 15 16 17
000
FTUS41 KAKQ 251740
TAFPHF
TAF
KPHF 251740Z 2518/2618 10005KT P6SM -RA OVC060
     FM252200 09007KT 4SM -RA BR OVC025
     FM260100 05005KT 4SM -RA BR OVC008
     FM261400 04008KT P6SM -RA OVC015=

USA.gov is the U.S. government's official web portal to all federal, state and local government web resources and services.